createdAt,value
2019-03-05T00:00:42.413Z,4.00
2019-03-05T00:03:13.328Z,4.97
2019-03-05T00:05:42.818Z,4.80
2019-03-05T00:08:12.203Z,3.10
2019-03-05T00:10:41.505Z,3.87
2019-03-05T00:13:11.509Z,3.30
2019-03-05T00:15:40.967Z,2.83
2019-03-05T00:18:10.443Z,4.00
2019-03-05T00:20:39.827Z,3.87
2019-03-05T00:23:09.479Z,3.30
2019-03-05T00:25:41.306Z,3.37
2019-03-05T00:28:18.831Z,3.77
2019-03-05T00:31:10.522Z,3.47
2019-03-05T00:33:58.564Z,3.33
2019-03-05T00:36:49.577Z,3.77
2019-03-05T00:39:46.895Z,3.60
2019-03-05T00:42:52.792Z,2.90
2019-03-05T00:45:37.736Z,3.07
2019-03-05T00:48:27.446Z,2.20
2019-03-05T00:51:29.949Z,2.40
2019-03-05T00:54:45.324Z,3.40
2019-03-05T00:58:05.324Z,3.10
2019-03-05T01:01:20.487Z,2.63
2019-03-05T01:04:34.875Z,2.50
2019-03-05T01:07:04.430Z,2.57
2019-03-05T01:09:35.267Z,3.30
2019-03-05T01:12:05.967Z,2.70
2019-03-05T01:14:35.944Z,2.80
2019-03-05T01:17:05.373Z,2.00
2019-03-05T01:19:35.183Z,3.00
2019-03-05T01:22:04.550Z,2.90
2019-03-05T01:24:33.898Z,2.20
2019-03-05T01:27:03.298Z,2.83
2019-03-05T01:29:33.105Z,2.30
2019-03-05T01:32:21.774Z,2.30
2019-03-05T01:35:13.174Z,3.03
2019-03-05T01:37:42.959Z,3.03
2019-03-05T01:40:29.153Z,2.90
2019-03-05T01:42:59.821Z,2.93
2019-03-05T01:45:29.163Z,2.27
2019-03-05T01:47:58.633Z,2.57
2019-03-05T01:50:27.979Z,3.10
2019-03-05T01:52:58.438Z,3.57
2019-03-05T01:55:28.233Z,2.63
2019-03-05T01:58:01.556Z,3.13
2019-03-05T02:00:31.764Z,2.90
2019-03-05T02:03:01.098Z,2.43
2019-03-05T02:05:30.499Z,3.80
2019-03-05T02:08:01.939Z,3.03
2019-03-05T02:10:31.300Z,3.00
2019-03-05T02:13:02.772Z,2.80
2019-03-05T02:15:32.351Z,3.23
2019-03-05T02:18:01.693Z,2.57
2019-03-05T02:20:32.954Z,2.90
2019-03-05T02:23:09.690Z,2.93
2019-03-05T02:26:02.005Z,3.90
2019-03-05T02:29:06.637Z,2.73
2019-03-05T02:32:08.290Z,3.13
2019-03-05T02:35:11.571Z,3.23
2019-03-05T02:38:25.571Z,3.10
2019-03-05T02:41:13.581Z,2.77
2019-03-05T02:44:19.661Z,4.57
2019-03-05T02:46:58.355Z,3.73
2019-03-05T02:50:03.401Z,2.20
2019-03-05T02:53:13.896Z,2.87
2019-03-05T02:56:26.721Z,2.93
2019-03-05T02:58:54.502Z,2.20
2019-03-05T03:01:48.606Z,1.77
2019-03-05T03:04:20.024Z,2.00
2019-03-05T03:06:49.484Z,1.50
2019-03-05T03:10:12.114Z,2.43
2019-03-05T03:12:44.762Z,2.80
2019-03-05T03:15:15.782Z,3.80
2019-03-05T03:17:45.739Z,3.10
2019-03-05T03:20:19.584Z,2.90
2019-03-05T03:22:48.920Z,2.87
2019-03-05T03:25:20.112Z,2.80
2019-03-05T03:27:49.724Z,3.10
2019-03-05T03:30:24.084Z,2.30
2019-03-05T03:32:53.364Z,3.20
2019-03-05T03:35:22.766Z,2.90
2019-03-05T03:37:52.034Z,3.83
2019-03-05T03:40:25.005Z,3.83
2019-03-05T03:42:55.214Z,3.23
2019-03-05T03:45:25.846Z,3.30
2019-03-05T03:47:55.200Z,3.33
2019-03-05T03:50:24.543Z,3.47
2019-03-05T03:52:53.950Z,2.60
2019-03-05T03:55:23.449Z,2.40
2019-03-05T03:57:52.855Z,3.10
2019-03-05T04:00:26.772Z,3.70
2019-03-05T04:02:57.033Z,4.23
2019-03-05T04:05:26.474Z,3.67
2019-03-05T04:07:55.803Z,3.90
2019-03-05T04:10:25.345Z,3.73
2019-03-05T04:12:54.731Z,4.00
2019-03-05T04:15:24.059Z,4.67
2019-03-05T04:17:55.844Z,3.80
2019-03-05T04:20:47.290Z,3.90
2019-03-05T04:23:16.772Z,4.07
2019-03-05T04:25:46.142Z,4.10
2019-03-05T04:28:15.527Z,3.60
2019-03-05T04:30:45.237Z,4.63
2019-03-05T04:33:15.036Z,4.53
2019-03-05T04:35:44.297Z,4.57
2019-03-05T04:38:13.716Z,4.30
2019-03-05T04:40:43.071Z,3.77
2019-03-05T04:43:12.364Z,4.17
2019-03-05T04:45:51.558Z,4.40
2019-03-05T04:48:21.826Z,4.03
2019-03-05T04:51:10.265Z,3.80
2019-03-05T04:53:39.708Z,4.20
2019-03-05T04:56:09.038Z,4.87
2019-03-05T04:58:38.417Z,4.27
2019-03-05T05:01:08.107Z,4.40
2019-03-05T05:03:37.474Z,4.30
2019-03-05T05:06:06.791Z,5.90
2019-03-05T05:08:36.133Z,5.17
2019-03-05T05:11:05.556Z,4.90
2019-03-05T05:13:35.011Z,5.27
2019-03-05T05:16:04.505Z,5.80
2019-03-05T05:18:33.880Z,4.70
2019-03-05T05:21:03.274Z,3.63
2019-03-05T05:23:32.611Z,4.20
2019-03-05T05:26:01.956Z,4.23
2019-03-05T05:28:31.404Z,4.67
2019-03-05T05:31:00.863Z,3.93
2019-03-05T05:33:30.227Z,4.10
2019-03-05T05:35:59.643Z,4.10
2019-03-05T05:38:28.990Z,4.23
2019-03-05T05:40:58.341Z,9.90
2019-03-05T05:43:29.954Z,3.70
2019-03-05T05:45:59.294Z,4.63
2019-03-05T05:48:28.701Z,3.77
2019-03-05T05:50:58.050Z,3.90
2019-03-05T05:53:27.468Z,3.67
2019-03-05T05:55:58.176Z,3.53
2019-03-05T05:58:27.565Z,3.27
2019-03-05T06:00:59.805Z,4.00
2019-03-05T06:03:29.113Z,3.83
2019-03-05T06:05:58.553Z,4.20
2019-03-05T06:08:28.186Z,4.50
2019-03-05T06:10:57.527Z,3.40
2019-03-05T06:13:27.217Z,4.27
2019-03-05T06:15:56.951Z,3.80
2019-03-05T06:18:26.303Z,4.20
2019-03-05T06:20:55.812Z,4.07
2019-03-05T06:23:25.202Z,3.93
2019-03-05T06:25:54.579Z,3.93
2019-03-05T06:28:24.416Z,3.17
2019-03-05T06:30:53.938Z,3.47
2019-03-05T06:33:23.446Z,4.20
2019-03-05T06:35:53.089Z,3.33
2019-03-05T06:38:22.556Z,3.57
2019-03-05T06:40:52.370Z,3.80
2019-03-05T06:43:21.679Z,3.53
2019-03-05T06:45:51.195Z,3.33
2019-03-05T06:48:20.661Z,3.60
2019-03-05T06:50:50.062Z,3.40
2019-03-05T06:53:19.329Z,3.73
2019-03-05T06:55:48.643Z,2.83
2019-03-05T06:58:18.039Z,3.30
2019-03-05T07:00:47.374Z,2.80
2019-03-05T07:03:16.777Z,2.83
2019-03-05T07:06:22.132Z,2.70
2019-03-05T07:08:59.973Z,3.00
2019-03-05T07:12:16.454Z,2.83
2019-03-05T07:15:15.157Z,2.50
2019-03-05T07:17:48.634Z,2.30
2019-03-05T07:20:57.598Z,2.10
2019-03-05T07:24:17.165Z,1.93
2019-03-05T07:26:46.610Z,2.30
2019-03-05T07:29:18.004Z,2.40
2019-03-05T07:31:47.193Z,2.00
2019-03-05T07:34:23.602Z,2.00
2019-03-05T07:36:53.030Z,2.03
2019-03-05T07:39:24.642Z,2.53
2019-03-05T07:41:54.202Z,2.20
2019-03-05T07:44:23.596Z,1.93
2019-03-05T07:46:52.959Z,2.10
2019-03-05T07:49:22.335Z,2.20
2019-03-05T07:51:51.731Z,1.80
2019-03-05T07:54:21.078Z,1.53
2019-03-05T07:56:50.431Z,1.63
2019-03-05T07:59:20.000Z,1.90
2019-03-05T08:01:49.392Z,1.40
2019-03-05T08:04:19.021Z,1.23
2019-03-05T08:06:48.602Z,1.63
2019-03-05T08:09:34.473Z,1.60
2019-03-05T08:12:23.975Z,1.70
2019-03-05T08:15:17.292Z,1.17
2019-03-05T08:17:47.116Z,1.87
2019-03-05T08:20:16.777Z,1.10
2019-03-05T08:22:46.422Z,1.40
2019-03-05T08:25:15.849Z,1.40
2019-03-05T08:27:45.238Z,1.27
2019-03-05T08:30:15.630Z,1.50
2019-03-05T08:32:45.029Z,1.40
2019-03-05T08:35:14.447Z,1.00
2019-03-05T08:37:43.878Z,1.60
2019-03-05T08:40:13.872Z,1.40
2019-03-05T08:42:43.234Z,1.00
2019-03-05T08:45:14.986Z,1.27
2019-03-05T08:47:44.212Z,1.60
2019-03-05T08:50:14.106Z,1.50
2019-03-05T08:52:43.478Z,1.17
2019-03-05T08:55:13.596Z,4.30
2019-03-05T08:57:43.236Z,1.10
2019-03-05T09:00:14.942Z,2.53
2019-03-05T09:02:48.463Z,0.83
2019-03-05T09:05:17.342Z,0.93
2019-03-05T09:07:46.905Z,0.80
2019-03-05T09:10:17.051Z,1.17
2019-03-05T09:12:46.349Z,1.10
2019-03-05T09:15:16.961Z,1.47
2019-03-05T09:17:46.510Z,1.37
2019-03-05T09:20:18.041Z,1.13
2019-03-05T09:22:47.433Z,1.00
2019-03-05T09:25:16.965Z,1.00
2019-03-05T09:27:46.316Z,1.10
2019-03-05T09:30:18.402Z,1.10
2019-03-05T09:32:48.838Z,1.27
2019-03-05T09:35:18.282Z,1.60
2019-03-05T09:37:48.045Z,3.87
2019-03-05T09:40:19.735Z,1.80
2019-03-05T09:42:49.227Z,2.50
2019-03-05T09:45:19.363Z,2.50
2019-03-05T09:47:49.457Z,2.47
2019-03-05T09:50:19.003Z,2.63
2019-03-05T09:52:55.036Z,2.60
2019-03-05T09:55:21.185Z,2.57
2019-03-05T09:57:53.669Z,4.03
2019-03-05T10:00:23.921Z,2.93
2019-03-05T10:02:53.355Z,3.37
2019-03-05T10:05:22.721Z,3.20
2019-03-05T10:07:52.147Z,2.60
2019-03-05T10:10:23.609Z,4.50
2019-03-05T10:12:53.210Z,4.70
2019-03-05T10:15:23.107Z,3.70
2019-03-05T10:17:53.107Z,3.60
2019-03-05T10:20:23.138Z,4.27
2019-03-05T10:22:52.514Z,5.57
2019-03-05T10:25:23.260Z,5.63
2019-03-05T10:27:53.249Z,4.53
2019-03-05T10:30:25.333Z,3.70
2019-03-05T10:32:55.532Z,6.40
2019-03-05T10:35:26.390Z,4.10
2019-03-05T10:37:57.576Z,5.10
2019-03-05T10:40:29.513Z,8.67
2019-03-05T10:43:08.081Z,3.83
2019-03-05T10:45:31.400Z,5.33
2019-03-05T10:48:01.280Z,5.07
2019-03-05T10:50:30.658Z,6.60
2019-03-05T10:53:00.226Z,4.03
2019-03-05T10:55:29.964Z,4.97
2019-03-05T10:57:59.454Z,4.00
2019-03-05T11:00:33.295Z,4.90
2019-03-05T11:03:02.959Z,4.90
2019-03-05T11:05:35.841Z,5.27
2019-03-05T11:08:05.978Z,5.03
2019-03-05T11:10:36.466Z,5.90
2019-03-05T11:13:05.889Z,5.30
2019-03-05T11:15:36.045Z,5.03
2019-03-05T11:18:07.649Z,5.27
2019-03-05T11:20:37.444Z,6.70
2019-03-05T11:23:07.519Z,5.83
2019-03-05T11:25:36.874Z,5.67
2019-03-05T11:28:06.574Z,5.40
2019-03-05T11:30:36.720Z,5.50
2019-03-05T11:33:06.162Z,6.10
2019-03-05T11:35:36.285Z,4.70
2019-03-05T11:38:06.249Z,4.77
2019-03-05T11:40:36.534Z,5.03
2019-03-05T11:43:11.130Z,4.50
2019-03-05T11:45:42.118Z,4.37
2019-03-05T11:48:11.750Z,5.30
2019-03-05T11:50:44.371Z,4.00
2019-03-05T11:53:13.876Z,5.40
2019-03-05T11:55:43.253Z,4.20
2019-03-05T11:58:12.622Z,4.83
2019-03-05T12:00:50.223Z,4.67
2019-03-05T12:03:19.583Z,4.10
2019-03-05T12:05:49.258Z,5.37
2019-03-05T12:08:18.536Z,5.50
2019-03-05T12:10:48.160Z,5.00
2019-03-05T12:13:17.574Z,5.23
2019-03-05T12:15:47.015Z,4.73
2019-03-05T12:18:16.445Z,5.40
2019-03-05T12:20:45.824Z,4.37
2019-03-05T12:23:15.545Z,5.73
2019-03-05T12:25:44.929Z,4.87
2019-03-05T12:28:14.327Z,4.03
2019-03-05T12:30:43.694Z,4.20
2019-03-05T12:33:13.184Z,4.00
2019-03-05T12:35:42.591Z,4.30
2019-03-05T12:38:12.011Z,3.90
2019-03-05T12:40:41.660Z,4.17
2019-03-05T12:43:11.546Z,3.80
2019-03-05T12:45:40.981Z,3.73
2019-03-05T12:48:10.403Z,3.97
2019-03-05T12:50:39.889Z,3.53
2019-03-05T12:53:09.035Z,3.40
2019-03-05T12:55:38.505Z,4.13
2019-03-05T12:58:07.834Z,3.00
2019-03-05T13:00:37.864Z,3.60
2019-03-05T13:03:07.375Z,3.00
2019-03-05T13:05:36.884Z,2.90
2019-03-05T13:08:06.543Z,2.30
2019-03-05T13:10:37.653Z,2.90
2019-03-05T13:13:10.500Z,2.50
2019-03-05T13:15:39.204Z,3.63
2019-03-05T13:18:08.575Z,4.30
2019-03-05T13:20:38.058Z,3.93
2019-03-05T13:23:09.687Z,3.53
2019-03-05T13:25:38.672Z,3.40
2019-03-05T13:28:08.115Z,3.37
2019-03-05T13:30:40.227Z,3.00
2019-03-05T13:33:08.774Z,3.43
2019-03-05T13:35:38.212Z,3.63
2019-03-05T13:38:09.529Z,4.00
2019-03-05T13:40:40.655Z,3.30
2019-03-05T13:43:10.276Z,3.23
2019-03-05T13:45:42.785Z,3.40
2019-03-05T13:48:20.558Z,3.70
2019-03-05T13:51:24.166Z,3.40
2019-03-05T13:54:37.319Z,3.00
2019-03-05T13:57:55.100Z,3.60
2019-03-05T14:00:23.675Z,3.47
2019-03-05T14:03:05.421Z,2.10
2019-03-05T14:06:10.815Z,2.47
2019-03-05T14:08:46.495Z,3.50
2019-03-05T14:11:16.439Z,3.50
2019-03-05T14:13:46.035Z,3.73
2019-03-05T14:16:17.919Z,2.73
2019-03-05T14:18:47.576Z,3.73
2019-03-05T14:21:17.136Z,3.40
2019-03-05T14:23:46.838Z,3.73
2019-03-05T14:26:16.334Z,2.33
2019-03-05T14:28:45.725Z,2.30
2019-03-05T14:31:15.332Z,2.33
2019-03-05T14:33:44.773Z,2.87
2019-03-05T14:36:14.352Z,2.83
2019-03-05T14:38:43.887Z,2.27
2019-03-05T14:41:13.616Z,2.70
2019-03-05T14:43:43.056Z,2.80
2019-03-05T14:46:14.763Z,2.50
2019-03-05T14:48:44.524Z,2.50
2019-03-05T14:51:14.206Z,2.80
2019-03-05T14:53:43.886Z,2.40
2019-03-05T14:56:14.260Z,3.03
2019-03-05T14:58:43.936Z,3.20
2019-03-05T15:01:14.324Z,2.60
2019-03-05T15:03:47.071Z,2.67
2019-03-05T15:06:17.159Z,2.43
2019-03-05T15:08:46.794Z,3.57
2019-03-05T15:11:17.295Z,4.20
2019-03-05T15:13:47.317Z,3.60
2019-03-05T15:16:18.940Z,2.70
2019-03-05T15:18:48.858Z,3.43
2019-03-05T15:21:21.447Z,3.53
2019-03-05T15:23:51.749Z,3.50
2019-03-05T15:26:21.729Z,3.03
2019-03-05T15:28:56.212Z,2.60
2019-03-05T15:31:23.590Z,3.10
2019-03-05T15:33:55.478Z,3.70
2019-03-05T15:36:25.483Z,3.10
2019-03-05T15:38:56.441Z,3.63
2019-03-05T15:41:31.144Z,2.93
2019-03-05T15:44:01.283Z,3.03
2019-03-05T15:46:35.287Z,2.67
2019-03-05T15:49:07.929Z,3.40
2019-03-05T15:51:38.642Z,2.87
2019-03-05T15:54:08.723Z,2.40
2019-03-05T15:56:38.436Z,2.67
2019-03-05T15:59:09.989Z,2.93
2019-03-05T16:01:39.558Z,2.90
2019-03-05T16:04:09.009Z,3.53
2019-03-05T16:06:38.499Z,2.23
2019-03-05T16:09:16.177Z,2.67
2019-03-05T16:11:46.232Z,2.70
2019-03-05T16:14:15.743Z,2.17
2019-03-05T16:16:46.359Z,2.67
2019-03-05T16:19:17.951Z,2.50
2019-03-05T16:21:47.949Z,3.67
2019-03-05T16:24:17.419Z,2.80
2019-03-05T16:26:46.943Z,3.17
2019-03-05T16:29:20.179Z,3.00
2019-03-05T16:32:06.339Z,3.57
2019-03-05T16:34:56.412Z,2.93
2019-03-05T16:37:45.886Z,3.93
2019-03-05T16:40:21.737Z,2.80
2019-03-05T16:43:00.392Z,3.30
2019-03-05T16:45:49.108Z,2.90
2019-03-05T16:48:36.303Z,2.30
2019-03-05T16:51:26.561Z,2.53
2019-03-05T16:54:17.288Z,3.30
2019-03-05T16:57:08.902Z,2.60
2019-03-05T17:00:00.599Z,2.77
2019-03-05T17:02:45.831Z,3.33
2019-03-05T17:05:46.854Z,4.33
2019-03-05T17:08:34.007Z,3.30
2019-03-05T17:11:25.435Z,3.20
2019-03-05T17:13:57.986Z,2.93
2019-03-05T17:16:27.613Z,5.10
2019-03-05T17:18:57.589Z,2.77
2019-03-05T17:21:27.985Z,3.00
2019-03-05T17:23:58.959Z,4.20
2019-03-05T17:26:28.526Z,2.83
2019-03-05T17:28:58.173Z,4.73
2019-03-05T17:31:27.708Z,4.13
2019-03-05T17:33:58.123Z,3.47
2019-03-05T17:36:27.901Z,3.80
2019-03-05T17:38:57.473Z,3.97
2019-03-05T17:41:27.658Z,3.00
2019-03-05T17:43:57.124Z,3.50
2019-03-05T17:46:26.962Z,2.73
2019-03-05T17:48:56.948Z,12.47
2019-03-05T17:51:27.138Z,5.00
2019-03-05T17:53:59.135Z,4.77
2019-03-05T17:56:29.354Z,3.83
2019-03-05T17:58:59.566Z,2.90
2019-03-05T18:01:30.798Z,3.73
2019-03-05T18:04:03.613Z,3.40
2019-03-05T18:06:33.407Z,2.70
2019-03-05T18:09:04.703Z,2.93
2019-03-05T18:11:34.511Z,3.50
2019-03-05T18:14:07.938Z,4.20
2019-03-05T18:16:38.617Z,3.50
2019-03-05T18:19:08.530Z,4.57
2019-03-05T18:21:38.243Z,4.10
2019-03-05T18:24:08.731Z,4.10
2019-03-05T18:26:38.821Z,3.40
2019-03-05T18:29:11.185Z,4.90
2019-03-05T18:31:40.985Z,4.57
2019-03-05T18:34:10.575Z,5.20
2019-03-05T18:36:40.209Z,4.43
2019-03-05T18:39:10.440Z,3.90
2019-03-05T18:41:41.505Z,4.97
2019-03-05T18:44:11.252Z,4.80
2019-03-05T18:46:41.270Z,4.33
2019-03-05T18:49:11.026Z,4.67
2019-03-05T18:51:40.724Z,5.03
2019-03-05T18:54:10.673Z,5.10
2019-03-05T18:56:42.406Z,5.33
2019-03-05T18:59:15.287Z,8.37
2019-03-05T19:01:45.204Z,7.17
2019-03-05T19:04:15.170Z,6.27
2019-03-05T19:06:46.297Z,5.63
2019-03-05T19:09:16.037Z,7.33
2019-03-05T19:11:45.834Z,6.07
2019-03-05T19:14:28.503Z,5.90
2019-03-05T19:16:58.520Z,6.23
2019-03-05T19:19:28.380Z,4.83
2019-03-05T19:21:59.587Z,8.43
2019-03-05T19:24:29.760Z,5.63
2019-03-05T19:26:59.638Z,6.47
2019-03-05T19:29:29.864Z,6.03
2019-03-05T19:32:00.477Z,5.37
2019-03-05T19:34:30.372Z,6.10
2019-03-05T19:37:00.778Z,4.70
2019-03-05T19:39:30.848Z,5.63
2019-03-05T19:42:01.055Z,4.80
2019-03-05T19:44:32.673Z,4.67
2019-03-05T19:47:02.609Z,6.03
2019-03-05T19:49:33.484Z,7.03
2019-03-05T19:52:03.392Z,6.60
2019-03-05T19:54:33.194Z,5.73
2019-03-05T19:57:03.048Z,7.17
2019-03-05T19:59:33.071Z,5.80
2019-03-05T20:02:03.091Z,5.90
2019-03-05T20:04:33.607Z,9.10
2019-03-05T20:07:06.630Z,10.10
2019-03-05T20:09:36.565Z,8.40
2019-03-05T20:12:07.784Z,9.07
2019-03-05T20:14:40.175Z,7.00
2019-03-05T20:17:10.290Z,8.03
2019-03-05T20:20:01.614Z,6.13
2019-03-05T20:22:32.005Z,6.83
2019-03-05T20:25:04.087Z,7.27
2019-03-05T20:27:38.524Z,6.87
2019-03-05T20:30:11.647Z,8.07
2019-03-05T20:32:42.847Z,8.50
2019-03-05T20:35:14.149Z,8.73
2019-03-05T20:37:51.220Z,9.07
2019-03-05T20:40:22.818Z,13.10
2019-03-05T20:42:54.379Z,10.97
2019-03-05T20:45:30.778Z,9.50
2019-03-05T20:48:04.708Z,12.17
2019-03-05T20:50:39.258Z,10.00
2019-03-05T20:53:10.242Z,9.23
2019-03-05T20:55:39.709Z,8.83
2019-03-05T20:58:09.408Z,10.20
2019-03-05T21:00:40.527Z,8.90
2019-03-05T21:03:11.036Z,9.70
2019-03-05T21:05:45.079Z,8.67
2019-03-05T21:08:17.989Z,9.90
2019-03-05T21:10:48.451Z,10.60
2019-03-05T21:13:20.685Z,8.90
2019-03-05T21:15:52.401Z,8.67
2019-03-05T21:18:22.414Z,10.20
2019-03-05T21:20:55.653Z,10.80
2019-03-05T21:23:25.937Z,10.67
2019-03-05T21:25:55.506Z,9.50
2019-03-05T21:28:26.503Z,9.47
2019-03-05T21:30:56.041Z,9.43
2019-03-05T21:33:25.939Z,10.27
2019-03-05T21:35:57.046Z,10.43
2019-03-05T21:38:28.894Z,9.30
2019-03-05T21:41:05.444Z,9.73
2019-03-05T21:43:36.559Z,10.10
2019-03-05T21:46:10.790Z,10.67
2019-03-05T21:48:40.441Z,9.30
2019-03-05T21:51:12.282Z,11.10
2019-03-05T21:53:43.473Z,11.10
2019-03-05T21:56:13.239Z,14.07
2019-03-05T21:58:42.813Z,10.80
2019-03-05T22:01:12.712Z,10.47
2019-03-05T22:03:42.250Z,11.00
2019-03-05T22:06:11.827Z,10.10
2019-03-05T22:08:42.594Z,11.70
2019-03-05T22:11:12.155Z,10.77
2019-03-05T22:13:41.712Z,11.43
2019-03-05T22:16:11.335Z,10.13
2019-03-05T22:18:42.146Z,12.40
2019-03-05T22:21:12.752Z,11.40
2019-03-05T22:23:42.292Z,11.10
2019-03-05T22:26:11.866Z,12.93
2019-03-05T22:28:42.095Z,12.70
2019-03-05T22:31:12.640Z,11.97
2019-03-05T22:33:42.255Z,10.07
2019-03-05T22:36:12.181Z,10.27
2019-03-05T22:38:41.631Z,12.10
2019-03-05T22:41:14.496Z,12.00
2019-03-05T22:43:43.913Z,11.70
2019-03-05T22:46:13.394Z,10.90
2019-03-05T22:48:42.885Z,11.50
2019-03-05T22:51:12.751Z,12.47
2019-03-05T22:53:42.286Z,11.63
2019-03-05T22:56:12.744Z,10.73
2019-03-05T22:58:42.438Z,11.40
2019-03-05T23:01:20.619Z,10.67
2019-03-05T23:03:56.344Z,9.47
2019-03-05T23:06:26.036Z,10.33
2019-03-05T23:08:57.463Z,10.33
2019-03-05T23:11:26.974Z,11.47
2019-03-05T23:13:57.049Z,11.50
2019-03-05T23:16:26.695Z,11.10
2019-03-05T23:18:58.550Z,10.50
2019-03-05T23:21:28.067Z,10.67
2019-03-05T23:23:57.591Z,11.50
2019-03-05T23:26:26.984Z,11.43
2019-03-05T23:28:56.511Z,14.00
2019-03-05T23:31:25.913Z,10.80
2019-03-05T23:33:55.879Z,11.23
2019-03-05T23:36:25.330Z,11.80
2019-03-05T23:38:54.842Z,11.23
2019-03-05T23:41:25.350Z,10.80
2019-03-05T23:43:54.855Z,11.10
2019-03-05T23:46:24.421Z,10.53
2019-03-05T23:48:54.736Z,11.60
2019-03-05T23:51:24.553Z,10.07
2019-03-05T23:53:54.957Z,11.50
2019-03-05T23:56:24.837Z,10.93
2019-03-05T23:58:54.455Z,11.30
